Wellington, FL

5:37 PM EST on December 17, 2014 (GMT -0500)
Aster Weather | Change Station
CLOSE
Current Station
Personal Weather Station
Location: Wellington, FL
Elevation: 35 ft
Nearby Weather Stations

Elev 35 ft 26.67 °N, 80.27 °W | Updated 13 seconds ago

Partly Cloudy
Partly Cloudy
73.1 °F
Feels Like 75 °F
N
0.0
Wind Variable Wind from North
Gusts 0.0 mph

Today
High -- | Low -- °F
--% Chance of Precip.
Yesterday
High -- | Low -- °F
Precip. -- in
7:03 AM 5:31 PM
Waning Crescent, 19% visible
Pressure 30.09 in
Visibility 10.0 miles
Clouds Few 3500 ft
Scattered Clouds 25000 ft
Heat Index 75 °F
Dew Point 62 °F
Humidity 68%
Rainfall 0.00 in
Snow Depth Not available.
UV 0.0 out of 12
Pollen 3.90 out of 12
Air Quality Not available.
Flu Activity Not available.
METAR KPBI 172153Z 12006KT 10SM FEW035 SCT250 24/14 A3009 RMK AO2 SLP188 T02390144

More Conditions Fewer Conditions

Pressure 30.09 in
Visibility 10.0 miles
Clouds Few 3500 ft
Scattered Clouds 25000 ft
Heat Index 75 °F
Dew Point 62 °F
Humidity 68%
Rainfall 0.00 in
Snow Depth Not available.
UV 0.0 out of 12
Pollen 3.90 out of 12
Air Quality Not available.
Flu Activity Not available.
METAR KPBI 172153Z 12006KT 10SM FEW035 SCT250 24/14 A3009 RMK AO2 SLP188 T02390144

More Conditions Fewer Conditions

10-Day Weather Forecast

Almanac

Astronomy

Dec. 17, 2014 Rise Set
Actual Time
Civil Twilight
Nautical Twilight
Astronomical Twilight
Moon
Length of Visible Light
Length of Day
Tomorrow will be .
, % of the Moon is Illuminated

Today's Extremes

State Highs State Lows

Community

WunderPhotos

Upload Photos

1,778,813 photos uploaded!

WunderBlogs® & News

Nearby

Air Quality

  Air Quality AQ Index Pollutant
Not available.

Snow Depth

Station Depth Elevation

Earthquake Activity

City Distance Mag. Time & Date
Minimum magnitude displayed is 2.5.

Coastal Water Temperatures

Place Temperature

Nearby Weather Stations